Time;durP1;ratioP1;P1;durP2;ratioP2;P2;SDS_P1;SDS_P2;PMS_P1;PMS_P2;Temp;Humidity;BMP_temperature;BMP_pressure;BME280_temperature;BME280_humidity;BME280_pressure;Samples;Min_cycle;Max_cycle;Signal;HPM_P1;HPM_P2
2023/09/23 00:00:25;;;;;;;6.20;3.97;;;;;;;21.39;100.00;101261.88;2080622;28;20197;-67
2023/09/23 00:01:26;;;;;;;7.23;4.20;;;;;;;21.39;100.00;101267.53;2080613;28;20268;-67
2023/09/23 00:02:26;;;;;;;6.77;3.87;;;;;;;21.38;100.00;101272.38;2081072;28;20201;-67
2023/09/23 00:03:27;;;;;;;4.93;3.80;;;;;;;21.37;100.00;101272.84;2081291;28;20645;-67
2023/09/23 00:04:29;;;;;;;6.13;3.30;;;;;;;21.34;100.00;101268.97;2080646;28;20169;-67
2023/09/23 00:05:33;;;;;;;9.77;3.40;;;;;;;21.37;100.00;101273.66;2081036;28;20227;-67
2023/09/23 00:06:34;;;;;;;5.63;3.57;;;;;;;21.29;100.00;101266.09;2080561;28;20463;-67
2023/09/23 00:07:34;;;;;;;5.47;3.80;;;;;;;21.33;100.00;101272.31;2081386;28;20443;-67
2023/09/23 00:08:34;;;;;;;5.27;4.20;;;;;;;20.72;100.00;101172.72;2080600;28;20177;-67
2023/09/23 00:09:38;;;;;;;5.57;4.00;;;;;;;21.34;100.00;101277.44;2078447;28;20193;-67
2023/09/23 00:10:38;;;;;;;6.43;3.87;;;;;;;20.70;100.00;101172.44;2080581;28;20754;-67
2023/09/23 00:11:40;;;;;;;6.97;3.73;;;;;;;21.26;100.00;101252.97;2080765;28;20815;-67
2023/09/23 00:12:41;;;;;;;5.60;4.03;;;;;;;21.37;100.00;101268.00;2080274;28;20196;-67
2023/09/23 00:13:42;;;;;;;4.80;3.50;;;;;;;21.38;100.00;101265.94;2080779;28;20396;-67
2023/09/23 00:14:42;;;;;;;7.67;4.00;;;;;;;21.37;100.00;101265.19;2081131;28;20268;-67
2023/09/23 00:15:43;;;;;;;6.60;3.87;;;;;;;21.38;100.00;101261.09;2081025;28;20303;-67
2023/09/23 00:16:46;;;;;;;5.57;3.10;;;;;;;21.38;100.00;101265.94;2080626;28;20177;-67
2023/09/23 00:17:48;;;;;;;7.23;3.63;;;;;;;21.37;100.00;101256.72;2081009;28;20458;-67
2023/09/23 00:18:48;;;;;;;9.20;3.97;;;;;;;21.30;100.00;101248.69;2080012;28;20320;-67
2023/09/23 00:19:49;;;;;;;5.13;3.67;;;;;;;21.36;100.00;101262.84;2079899;28;20231;-67
2023/09/23 00:20:49;;;;;;;5.80;3.83;;;;;;;21.35;100.00;101259.25;2080164;28;20193;-67
2023/09/23 00:21:50;;;;;;;6.27;3.87;;;;;;;21.28;100.00;101251.22;2081036;28;20181;-67
2023/09/23 00:22:52;;;;;;;6.03;4.10;;;;;;;21.34;100.00;101251.31;2080865;28;20212;-67
2023/09/23 00:23:52;;;;;;;5.33;3.77;;;;;;;20.92;100.00;101189.69;2080620;28;20185;-67
2023/09/23 00:24:54;;;;;;;7.57;3.90;;;;;;;21.32;100.00;101242.53;2081357;28;20440;-67
2023/09/23 00:25:54;;;;;;;6.73;3.60;;;;;;;21.30;100.00;101240.22;2081015;28;20189;-67
2023/09/23 00:26:59;;;;;;;6.53;4.30;;;;;;;21.31;100.00;101238.19;2080574;28;20232;-67
2023/09/23 00:27:59;;;;;;;5.70;3.70;;;;;;;21.29;100.00;101238.66;2080441;28;20588;-67
2023/09/23 00:29:00;;;;;;;6.63;3.77;;;;;;;21.30;100.00;101239.44;2080904;28;20521;-67
2023/09/23 00:30:04;;;;;;;7.27;3.90;;;;;;;21.29;100.00;101240.72;2080527;28;20201;-67
2023/09/23 00:31:16;;;;;;;10.73;4.43;;;;;;;21.27;100.00;101234.78;2080713;28;20177;-67
2023/09/23 00:32:17;;;;;;;4.90;3.90;;;;;;;21.26;100.00;101236.06;2077789;28;20656;-67
2023/09/23 00:33:17;;;;;;;6.00;3.93;;;;;;;21.24;100.00;101236.53;2074112;28;20516;-67
2023/09/23 00:34:18;;;;;;;6.90;3.60;;;;;;;21.25;100.00;101238.13;2080886;28;20214;-67
2023/09/23 00:35:18;;;;;;;6.27;3.87;;;;;;;21.25;100.00;101235.28;2081142;28;20177;-67
2023/09/23 00:36:19;;;;;;;5.43;3.27;;;;;;;21.13;100.00;101215.91;2080548;28;20696;-67
2023/09/23 00:37:20;;;;;;;5.40;3.70;;;;;;;21.24;100.00;101232.97;2081035;28;20181;-67
2023/09/23 00:38:21;;;;;;;6.43;4.17;;;;;;;21.23;100.00;101240.63;2080840;28;20960;-67
2023/09/23 00:39:22;;;;;;;6.40;4.20;;;;;;;21.23;100.00;101235.00;2076585;28;20197;-67
2023/09/23 00:40:31;;;;;;;6.73;4.20;;;;;;;21.20;100.00;101232.38;2074496;28;20662;-67
2023/09/23 00:41:32;;;;;;;6.47;4.20;;;;;;;21.16;100.00;101229.00;2082857;28;20196;-67
2023/09/23 00:42:33;;;;;;;4.70;3.90;;;;;;;21.23;100.00;101243.44;2081241;28;20420;-67
2023/09/23 00:43:34;;;;;;;6.37;3.63;;;;;;;21.24;100.00;101247.06;2080729;28;20197;-67
2023/09/23 00:44:35;;;;;;;5.43;4.00;;;;;;;21.23;100.00;101251.16;2081179;28;20177;-67
2023/09/23 00:45:36;;;;;;;7.07;4.00;;;;;;;21.21;100.00;101245.22;2080707;28;20185;-67
2023/09/23 00:46:37;;;;;;;7.07;4.33;;;;;;;20.58;100.00;101155.88;2080457;28;20209;-67
2023/09/23 00:47:38;;;;;;;4.90;3.50;;;;;;;21.06;100.00;101252.91;2080175;28;20962;-67
2023/09/23 00:48:43;;;;;;;6.13;3.53;;;;;;;20.58;100.00;101186.84;2080269;28;20197;-67
2023/09/23 00:49:44;;;;;;;4.47;3.20;;;;;;;20.96;100.00;101245.84;2080645;28;20189;-67
2023/09/23 00:50:46;;;;;;;7.67;3.90;;;;;;;21.01;100.00;101254.41;2080501;28;20416;-67
2023/09/23 00:51:47;;;;;;;5.77;4.40;;;;;;;21.05;100.00;101254.19;2080365;28;20931;-67
2023/09/23 00:52:52;;;;;;;8.07;4.83;;;;;;;20.99;100.00;101245.63;2075118;28;20829;-67
2023/09/23 00:53:53;;;;;;;10.20;5.20;;;;;;;20.99;100.00;101244.88;2073872;28;20671;-67
2023/09/23 00:54:53;;;;;;;10.07;5.17;;;;;;;20.94;100.00;101235.06;2072739;28;20861;-67
2023/09/23 00:55:55;;;;;;;8.63;4.40;;;;;;;20.98;100.00;101240.50;2080521;28;20181;-67
2023/09/23 00:56:58;;;;;;;6.57;4.00;;;;;;;20.98;100.00;101237.69;2080906;28;20193;-67
2023/09/23 00:58:00;;;;;;;5.50;4.00;;;;;;;20.95;100.00;101244.31;2080653;28;20431;-67
2023/09/23 00:59:00;;;;;;;8.03;4.20;;;;;;;20.94;100.00;101246.34;2080782;28;20538;-67
2023/09/23 01:00:03;;;;;;;6.60;4.03;;;;;;;20.93;100.00;101244.78;2080534;28;20435;-67
2023/09/23 01:01:07;;;;;;;6.87;4.37;;;;;;;20.90;100.00;101247.81;2079953;28;20212;-67
2023/09/23 01:02:07;;;;;;;7.43;3.90;;;;;;;20.69;100.00;101220.81;2080181;28;20447;-67
2023/09/23 01:03:08;;;;;;;5.57;4.20;;;;;;;20.90;100.00;101247.81;2080059;28;20455;-67
2023/09/23 01:04:09;;;;;;;7.23;4.30;;;;;;;20.87;100.00;101263.63;2080411;28;20259;-67
2023/09/23 01:05:10;;;;;;;9.77;4.43;;;;;;;20.83;100.00;101251.75;2080226;28;20169;-67
2023/09/23 01:06:14;;;;;;;6.30;4.40;;;;;;;20.84;100.00;101256.16;2080669;28;20426;-67
2023/09/23 01:07:14;;;;;;;7.27;4.23;;;;;;;20.80;100.00;101252.75;2080331;28;20189;-67
2023/09/23 01:08:22;;;;;;;6.80;4.23;;;;;;;20.81;100.00;101251.47;2080121;28;20460;-67
2023/09/23 01:09:23;;;;;;;5.90;4.03;;;;;;;20.80;100.00;101247.13;2079044;28;20235;-67
2023/09/23 01:10:24;;;;;;;5.83;3.87;;;;;;;20.82;100.00;101250.22;2079163;28;20965;-67
2023/09/23 01:11:27;;;;;;;7.30;4.00;;;;;;;20.83;100.00;101251.75;2080634;28;20189;-67
2023/09/23 01:12:27;;;;;;;6.40;4.63;;;;;;;20.82;100.00;101253.03;2080517;28;21089;-67
2023/09/23 01:13:30;;;;;;;7.33;4.00;;;;;;;20.83;100.00;101254.56;2080833;28;20787;-67
2023/09/23 01:14:31;;;;;;;6.97;4.00;;;;;;;20.83;100.00;101251.00;2078420;28;20181;-67
2023/09/23 01:15:32;;;;;;;6.00;4.20;;;;;;;20.61;100.00;101214.78;2071649;28;20265;-67
2023/09/23 01:16:33;;;;;;;9.33;4.33;;;;;;;20.82;100.00;101249.47;2072646;28;20412;-67
2023/09/23 01:17:33;;;;;;;5.73;4.70;;;;;;;20.83;100.00;101245.38;2079918;28;20603;-67
2023/09/23 01:18:35;;;;;;;7.00;4.53;;;;;;;20.83;100.00;101246.13;2080565;28;20192;-67
2023/09/23 01:19:35;;;;;;;6.00;3.70;;;;;;;20.09;100.00;101136.88;2079729;28;20279;-67
2023/09/23 01:20:37;;;;;;;9.63;3.73;;;;;;;20.84;100.00;101244.88;2079527;28;20189;-67
2023/09/23 01:21:38;;;;;;;9.07;4.50;;;;;;;20.85;100.00;101246.44;2080273;28;20680;-67
2023/09/23 01:22:39;;;;;;;10.73;4.13;;;;;;;20.83;100.00;101237.69;2080475;28;20799;-67
2023/09/23 01:23:43;;;;;;;6.57;3.93;;;;;;;20.83;100.00;101234.84;2079307;28;20215;-67
2023/09/23 01:24:45;;;;;;;10.33;3.90;;;;;;;20.80;100.00;101249.16;2080565;28;20435;-67
2023/09/23 01:25:45;;;;;;;5.27;4.03;;;;;;;20.81;100.00;101242.25;2080793;28;20435;-67
2023/09/23 01:26:53;;;;;;;6.43;3.87;;;;;;;20.80;100.00;101244.31;2080291;28;20522;-67
2023/09/23 01:27:53;;;;;;;6.27;3.63;;;;;;;20.80;100.00;101238.66;2080303;28;20879;-67
2023/09/23 01:28:54;;;;;;;10.10;4.37;;;;;;;20.81;100.00;101230.97;2080213;28;20899;-67
2023/09/23 01:29:54;;;;;;;9.43;4.13;;;;;;;20.80;100.00;101224.59;2080377;28;20193;-67
2023/09/23 01:30:56;;;;;;;7.10;3.80;;;;;;;20.80;100.00;101232.25;2079919;28;20309;-67
2023/09/23 01:32:15;;;;;;;7.23;3.90;;;;;;;20.80;100.00;101229.44;2080525;28;20172;-67
2023/09/23 01:33:15;;;;;;;9.27;4.37;;;;;;;20.79;100.00;101239.94;2076232;28;20969;-67
2023/09/23 01:34:16;;;;;;;6.10;4.33;;;;;;;20.79;100.00;101228.66;2075226;28;20432;-67
2023/09/23 01:35:20;;;;;;;5.30;3.83;;;;;;;20.77;100.00;101239.63;2079974;28;20196;-67
2023/09/23 01:36:20;;;;;;;6.63;3.70;;;;;;;20.69;100.00;101237.72;2080055;28;20616;-67
2023/09/23 01:37:23;;;;;;;7.33;4.33;;;;;;;20.60;100.00;101252.66;2080861;28;20729;-67
2023/09/23 01:38:26;;;;;;;8.43;4.40;;;;;;;20.53;100.00;101250.22;2072312;28;20181;-67
2023/09/23 01:39:27;;;;;;;8.73;4.60;;;;;;;20.45;100.00;101245.47;2079599;28;20458;-67
2023/09/23 01:40:29;;;;;;;7.80;4.57;;;;;;;20.52;100.00;101262.00;2079961;28;20447;-67
2023/09/23 01:41:29;;;;;;;9.23;4.53;;;;;;;20.55;100.00;101266.63;2079925;28;20206;-67
2023/09/23 01:42:32;;;;;;;7.50;4.10;;;;;;;20.56;100.00;101265.38;2075908;28;20452;-67
2023/09/23 01:43:32;;;;;;;9.03;4.80;;;;;;;20.56;100.00;101262.56;2075544;28;20207;-67
2023/09/23 01:44:33;;;;;;;6.73;4.40;;;;;;;20.57;100.00;101273.34;2080263;28;20173;-67
2023/09/23 01:45:34;;;;;;;8.50;4.40;;;;;;;20.57;100.00;101259.25;2080186;28;20184;-67
2023/09/23 01:46:35;;;;;;;5.53;3.70;;;;;;;20.57;100.00;101261.31;2080597;28;20201;-67
2023/09/23 01:47:37;;;;;;;11.03;3.73;;;;;;;20.57;100.00;101255.69;2072438;28;20181;-67
2023/09/23 01:48:38;;;;;;;6.43;3.90;;;;;;;20.58;100.00;101258.00;2078171;28;20215;-67
2023/09/23 01:49:38;;;;;;;8.53;4.53;;;;;;;20.60;100.00;101251.88;2080092;28;20284;-67
2023/09/23 01:50:39;;;;;;;7.53;4.10;;;;;;;20.59;100.00;101253.16;2079659;28;20193;-67
2023/09/23 01:51:40;;;;;;;6.03;4.10;;;;;;;20.59;100.00;101253.94;2079428;28;20196;-67
2023/09/23 01:52:43;;;;;;;7.10;4.03;;;;;;;20.59;100.00;101248.31;2078834;28;20647;-67
2023/09/23 01:53:43;;;;;;;8.13;4.30;;;;;;;20.60;100.00;101247.03;2080079;28;20368;-67
2023/09/23 01:54:46;;;;;;;6.40;3.87;;;;;;;20.61;100.00;101242.97;2080235;28;20438;-67
2023/09/23 01:55:46;;;;;;;8.77;3.80;;;;;;;20.61;100.00;101253.44;2072507;28;20201;-67
2023/09/23 01:56:46;;;;;;;5.83;3.90;;;;;;;20.60;100.00;101252.66;2079304;28;20223;-67
2023/09/23 01:57:50;;;;;;;8.80;4.10;;;;;;;20.61;100.00;101251.41;2080336;28;20197;-67
2023/09/23 01:58:50;;;;;;;7.40;4.20;;;;;;;20.61;100.00;101254.22;2080471;28;20223;-67
2023/09/23 01:59:51;;;;;;;6.60;4.07;;;;;;;20.54;100.00;101254.63;2079929;28;20218;-67
2023/09/23 02:00:55;;;;;;;8.20;4.03;;;;;;;20.57;100.00;101269.78;2079905;28;20200;-67
2023/09/23 02:01:55;;;;;;;9.00;4.10;;;;;;;20.53;100.00;101263.53;2079700;28;20258;-67
2023/09/23 02:02:57;;;;;;;5.70;4.00;;;;;;;20.20;100.00;101227.13;2080292;28;20180;-67
2023/09/23 02:03:58;;;;;;;6.90;4.40;;;;;;;20.50;100.00;101270.94;2079871;28;20183;-67
2023/09/23 02:04:58;;;;;;;8.13;4.20;;;;;;;20.52;100.00;101270.44;2080935;28;20179;-67
2023/09/23 02:05:58;;;;;;;7.53;4.17;;;;;;;20.53;100.00;101272.00;2080926;28;20227;-67
2023/09/23 02:06:59;;;;;;;8.93;4.40;;;;;;;20.54;100.00;101274.34;2081061;28;20220;-67
2023/09/23 02:07:59;;;;;;;6.50;4.10;;;;;;;20.53;100.00;101275.56;2081286;28;20208;-67
2023/09/23 02:09:00;;;;;;;8.63;4.43;;;;;;;20.52;100.00;101268.38;2080433;28;20195;-67
2023/09/23 02:10:00;;;;;;;5.57;4.00;;;;;;;20.27;100.00;101232.34;2081849;28;20188;-67
2023/09/23 02:11:02;;;;;;;4.80;3.90;;;;;;;20.52;100.00;101271.19;2081672;28;20177;-67
2023/09/23 02:12:03;;;;;;;7.53;4.67;;;;;;;20.53;100.00;101274.81;2081740;28;20169;-67
2023/09/23 02:13:04;;;;;;;5.43;3.93;;;;;;;20.48;100.00;101267.81;2082537;28;20260;-67
2023/09/23 02:14:05;;;;;;;6.17;3.73;;;;;;;20.47;100.00;101271.88;2081806;28;20650;-67
2023/09/23 02:15:06;;;;;;;6.40;4.37;;;;;;;20.46;100.00;101269.56;2081787;28;20192;-67
2023/09/23 02:16:06;;;;;;;7.13;3.67;;;;;;;20.45;100.00;101265.97;2081687;28;20441;-67
2023/09/23 02:17:08;;;;;;;6.80;4.10;;;;;;;20.44;100.00;101269.25;2082049;28;20197;-67
2023/09/23 02:18:08;;;;;;;8.37;4.30;;;;;;;20.42;100.00;101263.34;2081748;28;20189;-67
2023/09/23 02:19:09;;;;;;;5.60;3.77;;;;;;;20.39;100.00;101267.91;2081789;28;20172;-67
2023/09/23 02:20:21;;;;;;;7.90;3.90;;;;;;;20.40;100.00;101272.28;2081646;28;20724;-67
2023/09/23 02:21:22;;;;;;;5.70;4.00;;;;;;;19.96;100.00;101209.50;2080810;28;20169;-67
2023/09/23 02:22:22;;;;;;;7.07;4.30;;;;;;;20.37;100.00;101272.47;2081475;28;20177;-67
2023/09/23 02:23:23;;;;;;;11.37;4.03;;;;;;;20.36;100.00;101268.88;2082344;28;20627;-67
2023/09/23 02:24:23;;;;;;;6.70;4.37;;;;;;;20.12;100.00;101245.63;2081689;28;20633;-67
2023/09/23 02:25:27;;;;;;;7.37;3.80;;;;;;;20.33;100.00;101271.88;2081642;28;20181;-67
2023/09/23 02:26:27;;;;;;;7.50;4.40;;;;;;;20.30;100.00;101273.63;2081555;28;20232;-67
2023/09/23 02:27:28;;;;;;;8.27;4.03;;;;;;;20.31;100.00;101275.19;2081718;28;20201;-67
2023/09/23 02:28:28;;;;;;;7.03;4.33;;;;;;;20.31;100.00;101282.84;2080397;28;20213;-67
2023/09/23 02:29:30;;;;;;;5.63;4.30;;;;;;;20.26;100.00;101275.84;2081317;28;20181;-67
2023/09/23 02:30:32;;;;;;;9.77;4.77;;;;;;;20.18;100.00;101285.94;2081158;28;20187;-67
2023/09/23 02:31:36;;;;;;;10.27;4.80;;;;;;;20.20;100.00;101289.03;2081468;28;20264;-67
2023/09/23 02:32:43;;;;;;;9.37;5.20;;;;;;;20.24;100.00;101284.00;2074037;28;20444;-67
2023/09/23 02:33:44;;;;;;;7.07;4.10;;;;;;;20.24;100.00;101286.81;2073805;28;20464;-67
2023/09/23 02:34:45;;;;;;;6.27;4.27;;;;;;;20.20;100.00;101283.41;2081057;28;20681;-67
2023/09/23 02:35:45;;;;;;;6.33;4.33;;;;;;;19.72;100.00;101210.81;2081019;28;20285;-67
2023/09/23 02:36:47;;;;;;;7.27;4.40;;;;;;;20.10;100.00;101279.13;2081719;28;20243;-67
2023/09/23 02:37:48;;;;;;;7.47;4.73;;;;;;;20.16;100.00;101288.44;2082010;28;20625;-67
2023/09/23 02:38:49;;;;;;;9.03;4.70;;;;;;;20.18;100.00;101291.56;2081534;28;20450;-67
2023/09/23 02:39:49;;;;;;;7.00;4.67;;;;;;;20.19;100.00;101284.69;2081922;28;20674;-67
2023/09/23 02:40:50;;;;;;;8.23;4.57;;;;;;;20.22;100.00;101297.00;2080478;28;20631;-67
2023/09/23 02:41:50;;;;;;;5.20;3.80;;;;;;;19.79;100.00;101221.69;2080938;28;20185;-67
2023/09/23 02:42:54;;;;;;;7.30;5.20;;;;;;;20.22;100.00;101283.69;2081254;28;20192;-67
2023/09/23 02:43:55;;;;;;;6.03;4.63;;;;;;;20.21;100.00;101282.16;2081579;28;20212;-68
2023/09/23 02:44:56;;;;;;;4.77;4.07;;;;;;;20.23;100.00;101287.28;2081730;28;20462;-67
2023/09/23 02:45:58;;;;;;;10.13;4.20;;;;;;;20.21;100.00;101289.81;2081479;28;20443;-67
2023/09/23 02:46:58;;;;;;;7.83;4.50;;;;;;;20.21;100.00;101284.97;2081648;28;20220;-67
2023/09/23 02:47:59;;;;;;;7.40;4.00;;;;;;;19.92;100.00;101244.72;2080950;28;20485;-67
2023/09/23 02:49:00;;;;;;;5.73;4.27;;;;;;;20.22;100.00;101292.13;2081146;28;20173;-67
2023/09/23 02:50:01;;;;;;;8.50;4.70;;;;;;;20.24;100.00;101289.63;2073593;28;20478;-67
2023/09/23 02:51:04;;;;;;;9.87;4.00;;;;;;;20.22;100.00;101289.31;2081871;28;20185;-67
2023/09/23 02:52:06;;;;;;;8.20;4.47;;;;;;;20.22;100.00;101283.69;2081989;28;20246;-67
2023/09/23 02:53:07;;;;;;;5.20;4.17;;;;;;;20.23;100.00;101293.72;2081560;28;20545;-67
2023/09/23 02:54:09;;;;;;;6.40;4.87;;;;;;;20.03;100.00;101276.66;2081331;28;20200;-67
2023/09/23 02:55:19;;;;;;;8.70;4.30;;;;;;;19.78;100.00;101225.75;2081542;28;20216;-67
2023/09/23 02:56:19;;;;;;;6.07;4.37;;;;;;;19.97;100.00;101264.53;2081380;28;20234;-67
2023/09/23 02:57:20;;;;;;;7.20;4.50;;;;;;;20.20;100.00;101296.69;2081658;28;20298;-67
2023/09/23 02:58:22;;;;;;;6.57;3.90;;;;;;;20.19;100.00;101295.94;2081606;28;20215;-67
2023/09/23 02:59:26;;;;;;;6.13;3.40;;;;;;;19.70;100.00;101216.16;2081499;28;20235;-67
2023/09/23 03:00:30;;;;;;;7.23;4.00;;;;;;;20.20;100.00;101293.88;2081215;28;20937;-67
2023/09/23 03:01:30;;;;;;;6.30;4.07;;;;;;;20.19;100.00;101295.16;2079832;28;20177;-67
2023/09/23 03:02:31;;;;;;;4.97;3.73;;;;;;;20.19;100.00;101295.16;2080925;28;20732;-67
2023/09/23 03:03:33;;;;;;;5.70;3.80;;;;;;;20.17;100.00;101304.06;2073069;28;20197;-67
2023/09/23 03:04:34;;;;;;;5.00;3.43;;;;;;;20.16;100.00;101299.69;2079521;28;20523;-67
2023/09/23 03:05:38;;;;;;;7.77;4.27;;;;;;;19.74;100.00;101233.59;2081538;28;20435;-67
2023/09/23 03:06:40;;;;;;;5.23;3.77;;;;;;;20.17;100.00;101300.50;2081321;28;20212;-67
2023/09/23 03:07:40;;;;;;;7.60;3.50;;;;;;;20.15;100.00;101303.78;2080678;28;20439;-67
2023/09/23 03:08:47;;;;;;;8.37;4.27;;;;;;;20.15;100.00;101300.19;2080089;28;20411;-67
2023/09/23 03:09:55;;;;;;;6.20;3.90;;;;;;;20.14;100.00;101316.31;2081337;28;20308;-67
2023/09/23 03:11:02;;;;;;;8.70;3.93;;;;;;;20.10;100.00;101309.28;2081218;28;20443;-67
2023/09/23 03:12:03;;;;;;;8.23;4.13;;;;;;;20.03;100.00;101312.44;2081583;28;20411;-67
2023/09/23 03:13:11;;;;;;;7.43;3.90;;;;;;;19.99;100.00;101312.63;2081580;28;20422;-67
2023/09/23 03:14:17;;;;;;;5.03;3.57;;;;;;;19.98;100.00;101315.94;2081278;28;20408;-67
2023/09/23 03:15:20;;;;;;;5.10;4.10;;;;;;;19.97;100.00;101314.38;2081859;28;20412;-67
2023/09/23 03:16:28;;;;;;;7.43;4.50;;;;;;;19.96;100.00;101318.44;2073628;28;20424;-67
2023/09/23 03:17:28;;;;;;;5.90;4.67;;;;;;;19.96;100.00;101324.84;2081094;28;20442;-67
2023/09/23 03:18:33;;;;;;;7.87;3.80;;;;;;;20.00;100.00;101321.88;2080621;28;20435;-67
2023/09/23 03:19:34;;;;;;;6.30;4.10;;;;;;;19.97;100.00;101322.81;2081603;28;20748;-67
2023/09/23 03:20:36;;;;;;;5.43;4.30;;;;;;;19.95;100.00;101314.84;2081252;28;20458;-67
2023/09/23 03:21:41;;;;;;;8.07;4.43;;;;;;;19.94;100.00;101316.13;2081187;28;20493;-67
2023/09/23 03:22:41;;;;;;;7.07;4.27;;;;;;;19.95;100.00;101317.66;2077998;28;20491;-68
2023/09/23 03:23:41;;;;;;;8.53;4.03;;;;;;;19.95;100.00;101319.72;2081398;28;20416;-68
2023/09/23 03:24:46;;;;;;;7.07;4.70;;;;;;;19.96;100.00;101322.03;2080928;28;20173;-67
2023/09/23 03:25:47;;;;;;;7.60;3.90;;;;;;;20.00;100.00;101327.50;2081576;28;20181;-67
2023/09/23 03:26:54;;;;;;;7.07;4.07;;;;;;;19.95;100.00;101319.72;2073561;28;20460;-67
2023/09/23 03:27:55;;;;;;;6.67;4.93;;;;;;;19.97;100.00;101317.19;2080273;28;20454;-67
2023/09/23 03:28:57;;;;;;;7.50;4.60;;;;;;;19.97;100.00;101317.97;2079860;28;20969;-67
2023/09/23 03:30:00;;;;;;;7.50;4.17;;;;;;;19.96;100.00;101316.41;2080455;28;20645;-67
2023/09/23 03:31:01;;;;;;;6.00;4.47;;;;;;;19.96;100.00;101318.44;2080799;28;20760;-67
2023/09/23 03:32:02;;;;;;;7.50;4.20;;;;;;;19.77;100.00;101283.25;2081245;28;20436;-67
2023/09/23 03:33:03;;;;;;;7.60;4.43;;;;;;;19.97;100.00;101312.34;2079664;28;20649;-67
2023/09/23 03:34:03;;;;;;;6.70;4.50;;;;;;;19.98;100.00;101316.72;2081154;28;20228;-67
2023/09/23 03:35:08;;;;;;;6.13;3.80;;;;;;;19.99;100.00;101321.06;2081229;28;20242;-67
2023/09/23 03:36:15;;;;;;;4.70;3.47;;;;;;;20.01;100.00;101317.78;2081303;28;20177;-67
2023/09/23 03:37:16;;;;;;;6.83;4.30;;;;;;;20.00;100.00;101317.00;2081819;28;20428;-67
2023/09/23 03:38:16;;;;;;;8.43;4.53;;;;;;;20.01;100.00;101315.72;2080926;28;21045;-67
2023/09/23 03:39:17;;;;;;;5.73;3.97;;;;;;;20.01;100.00;101321.38;2081367;28;20192;-67
2023/09/23 03:40:24;;;;;;;6.10;3.97;;;;;;;20.02;100.00;101317.31;2080895;28;20185;-67
2023/09/23 03:41:25;;;;;;;7.10;4.30;;;;;;;20.03;100.00;101323.69;2080981;28;20607;-67
2023/09/23 03:42:26;;;;;;;7.10;4.03;;;;;;;20.02;100.00;101316.53;2081028;28;20205;-67
2023/09/23 03:43:27;;;;;;;6.47;4.07;;;;;;;20.01;100.00;101320.59;2081450;28;20173;-67
2023/09/23 03:44:27;;;;;;;5.97;4.40;;;;;;;20.01;100.00;101303.72;2081116;28;20181;-67
2023/09/23 03:45:32;;;;;;;7.13;4.50;;;;;;;20.03;100.00;101316.06;2081664;28;20650;-67
2023/09/23 03:46:33;;;;;;;6.40;4.20;;;;;;;20.00;100.00;101316.25;2073021;28;20188;-67
2023/09/23 03:47:34;;;;;;;7.13;4.10;;;;;;;20.05;100.00;101309.94;2080187;28;20819;-67
2023/09/23 03:48:35;;;;;;;7.73;4.07;;;;;;;20.05;100.00;101316.34;2080649;28;20521;-67
2023/09/23 03:49:35;;;;;;;6.33;3.60;;;;;;;20.05;100.00;101321.97;2080488;28;20189;-67
2023/09/23 03:50:36;;;;;;;6.87;4.10;;;;;;;20.05;100.00;101321.97;2080546;28;20440;-67
2023/09/23 03:51:37;;;;;;;7.63;3.73;;;;;;;20.04;100.00;101316.81;2081222;28;20228;-67
2023/09/23 03:52:38;;;;;;;5.80;4.03;;;;;;;20.02;100.00;101327.78;2081079;28;20179;-67
2023/09/23 03:53:38;;;;;;;5.53;3.67;;;;;;;20.00;100.00;101325.44;2081065;28;20203;-67
2023/09/23 03:54:38;;;;;;;8.50;4.10;;;;;;;19.99;100.00;101326.69;2081592;28;20248;-67
2023/09/23 03:55:39;;;;;;;5.60;3.93;;;;;;;20.00;100.00;101336.69;2079951;28;20616;-67
2023/09/23 03:56:40;;;;;;;5.03;3.77;;;;;;;19.48;100.00;101247.38;2080247;28;20193;-67
2023/09/23 03:57:42;;;;;;;3.87;3.17;;;;;;;19.98;100.00;101327.97;2081297;28;20316;-67
2023/09/23 03:58:43;;;;;;;6.63;3.70;;;;;;;19.74;100.00;101295.47;2081080;28;20473;-67
2023/09/23 03:59:44;;;;;;;4.73;3.27;;;;;;;19.97;100.00;101336.88;2080761;28;20454;-67
2023/09/23 04:00:44;;;;;;;6.47;3.20;;;;;;;19.96;100.00;101329.69;2088044;28;20419;-67
2023/09/23 04:01:45;;;;;;;4.37;3.40;;;;;;;19.94;100.00;101326.56;2088221;28;20172;-67
2023/09/23 04:02:47;;;;;;;6.17;3.60;;;;;;;19.93;100.00;101328.63;2081120;28;20658;-67
2023/09/23 04:03:47;;;;;;;5.67;3.53;;;;;;;19.92;100.00;101335.50;2081447;28;20431;-67
2023/09/23 04:04:49;;;;;;;7.10;3.33;;;;;;;19.91;100.00;101336.75;2080890;28;20526;-67
2023/09/23 04:06:00;;;;;;;4.10;3.00;;;;;;;19.87;100.00;101335.38;2080730;28;20196;-67
2023/09/23 04:07:00;;;;;;;5.20;3.20;;;;;;;19.81;100.00;101334.50;2080678;28;20593;-67
2023/09/23 04:08:01;;;;;;;5.57;3.63;;;;;;;19.78;100.00;101335.44;2080403;28;20447;-67
2023/09/23 04:09:01;;;;;;;6.07;3.80;;;;;;;19.73;100.00;101339.69;2076931;28;20643;-67
2023/09/23 04:10:02;;;;;;;4.40;3.47;;;;;;;19.73;100.00;101345.31;2075363;28;20196;-67
2023/09/23 04:11:10;;;;;;;4.90;3.80;;;;;;;19.72;100.00;101340.16;2080384;28;20173;-67
2023/09/23 04:12:10;;;;;;;4.47;3.40;;;;;;;19.70;100.00;101339.88;2081002;28;20173;-67
2023/09/23 04:13:14;;;;;;;5.47;3.70;;;;;;;19.68;100.00;101345.19;2081041;28;20502;-67
2023/09/23 04:14:14;;;;;;;5.10;3.23;;;;;;;19.66;100.00;101342.84;2080828;28;20219;-67
2023/09/23 04:15:15;;;;;;;4.90;3.50;;;;;;;19.64;100.00;101339.75;2081313;28;20510;-67
2023/09/23 04:16:15;;;;;;;5.87;3.83;;;;;;;19.66;100.00;101344.91;2080228;28;20674;-67
2023/09/23 04:17:16;;;;;;;5.83;4.00;;;;;;;19.61;100.00;101342.75;2081294;28;20193;-67
2023/09/23 04:18:18;;;;;;;8.03;3.90;;;;;;;19.62;100.00;101347.09;2080801;28;20526;-67
2023/09/23 04:19:19;;;;;;;7.23;3.50;;;;;;;19.57;100.00;101344.94;2080730;28;20193;-67
2023/09/23 04:20:19;;;;;;;6.47;3.87;;;;;;;19.55;100.00;101351.03;2080492;28;21208;-67
2023/09/23 04:21:22;;;;;;;5.77;3.63;;;;;;;19.56;100.00;101355.44;2088605;28;20250;-67
2023/09/23 04:22:22;;;;;;;6.77;3.93;;;;;;;19.54;100.00;101354.34;2087294;28;20179;-67
2023/09/23 04:23:23;;;;;;;5.20;3.63;;;;;;;19.54;100.00;101362.78;2081345;28;20416;-67
2023/09/23 04:24:23;;;;;;;5.33;3.77;;;;;;;19.52;100.00;101360.44;2080594;28;20678;-67
2023/09/23 04:25:24;;;;;;;5.17;4.00;;;;;;;19.12;100.00;101298.13;2081073;28;20195;-67
2023/09/23 04:26:24;;;;;;;5.83;4.40;;;;;;;19.45;100.00;101343.13;2080713;28;20282;-67
2023/09/23 04:27:26;;;;;;;6.63;4.50;;;;;;;19.48;100.00;101351.38;2081047;28;20181;-67
2023/09/23 04:28:26;;;;;;;5.07;3.63;;;;;;;19.50;100.00;101359.34;2080062;28;20187;-67
2023/09/23 04:29:28;;;;;;;5.87;3.77;;;;;;;19.49;100.00;101355.75;2080469;28;20418;-67
2023/09/23 04:30:29;;;;;;;7.67;3.80;;;;;;;19.46;100.00;101356.72;2079688;28;20264;-67
2023/09/23 04:31:30;;;;;;;8.63;4.27;;;;;;;19.05;100.00;101294.88;2081126;28;20431;-67
2023/09/23 04:32:30;;;;;;;6.33;3.83;;;;;;;19.47;100.00;101366.72;2080776;28;20203;-67
2023/09/23 04:33:31;;;;;;;6.83;4.07;;;;;;;19.48;100.00;101356.22;2080791;28;20690;-67
2023/09/23 04:34:35;;;;;;;6.43;4.27;;;;;;;19.48;100.00;101367.47;2080981;28;20193;-67
2023/09/23 04:35:36;;;;;;;9.17;4.33;;;;;;;19.47;100.00;101377.94;2080576;28;20196;-67
2023/09/23 04:36:36;;;;;;;6.10;4.23;;;;;;;19.47;100.00;101380.75;2077305;28;20452;-67
2023/09/23 04:37:37;;;;;;;5.57;4.47;;;;;;;19.49;100.00;101372.63;2080017;28;20181;-67
2023/09/23 04:38:38;;;;;;;6.13;4.50;;;;;;;19.48;100.00;101373.09;2079929;28;20688;-67
2023/09/23 04:39:38;;;;;;;5.93;3.97;;;;;;;19.48;100.00;101373.88;2079795;28;20674;-67
2023/09/23 04:40:39;;;;;;;5.57;3.93;;;;;;;19.49;100.00;101371.84;2081158;28;20208;-67
2023/09/23 04:41:40;;;;;;;6.80;4.13;;;;;;;19.50;100.00;101376.22;2080427;28;20185;-67
2023/09/23 04:42:42;;;;;;;7.43;3.80;;;;;;;19.02;100.00;101299.41;2078520;28;20220;-67
2023/09/23 04:43:42;;;;;;;6.30;3.67;;;;;;;19.49;100.00;101377.47;2075570;28;20195;-67